TimeCDT,TemperatureF,Dew PointF,Humidity,Sea Level PressureIn,VisibilityMPH,Wind Direction,Wind SpeedMPH,Gust SpeedMPH,PrecipitationIn,Events,Conditions,WindDirDegrees,DateUTC
12:54 AM,73.0,66.9,81,29.97,10.0,WSW,6.9,-,N/A,,Clear,250,2013-08-28 05:54:00
1:54 AM,71.1,66.9,87,29.97,10.0,Calm,Calm,-,N/A,,Clear,0,2013-08-28 06:54:00
2:54 AM,73.0,66.9,81,29.96,10.0,West,4.6,-,N/A,,Clear,270,2013-08-28 07:54:00
3:54 AM,70.0,66.0,87,29.97,10.0,Calm,Calm,-,N/A,,Clear,0,2013-08-28 08:54:00
4:54 AM,70.0,66.0,87,29.98,10.0,Calm,Calm,-,N/A,,Clear,0,2013-08-28 09:54:00
5:54 AM,70.0,66.0,87,29.99,10.0,Calm,Calm,-,N/A,,Clear,0,2013-08-28 10:54:00
6:54 AM,68.0,64.9,90,30.01,6.0,Calm,Calm,-,N/A,,Clear,0,2013-08-28 11:54:00
7:54 AM,73.9,68.0,82,30.02,10.0,Calm,Calm,-,N/A,,Scattered Clouds,0,2013-08-28 12:54:00
8:54 AM,80.1,68.0,67,30.02,10.0,West,5.8,-,N/A,,Scattered Clouds,270,2013-08-28 13:54:00
9:54 AM,82.9,68.0,60,30.02,10.0,West,6.9,-,N/A,,Clear,260,2013-08-28 14:54:00
10:54 AM,87.1,68.0,53,30.01,10.0,WSW,9.2,-,N/A,,Clear,240,2013-08-28 15:54:00
11:54 AM,90.0,66.0,45,30.01,10.0,WSW,6.9,-,N/A,,Partly Cloudy,240,2013-08-28 16:54:00
12:54 PM,93.0,64.9,39,29.99,10.0,WSW,9.2,-,N/A,,Partly Cloudy,250,2013-08-28 17:54:00
1:54 PM,93.0,63.0,37,29.98,10.0,WSW,8.1,-,N/A,,Partly Cloudy,240,2013-08-28 18:54:00
2:54 PM,93.9,64.0,37,29.96,10.0,Variable,6.9,-,N/A,,Clear,0,2013-08-28 19:54:00
3:54 PM,95.0,62.1,33,29.95,10.0,WSW,6.9,-,N/A,,Partly Cloudy,240,2013-08-28 20:54:00
4:54 PM,93.9,62.1,35,29.95,10.0,SSW,5.8,-,N/A,,Partly Cloudy,210,2013-08-28 21:54:00
5:54 PM,93.0,64.9,39,29.95,10.0,SW,6.9,-,N/A,,Clear,220,2013-08-28 22:54:00
6:54 PM,88.0,68.0,51,29.96,10.0,SSW,4.6,-,N/A,,Clear,200,2013-08-28 23:54:00
7:54 PM,80.1,70.0,71,29.96,10.0,Calm,Calm,-,N/A,,Clear,0,2013-08-29 00:54:00
8:54 PM,77.0,70.0,79,29.97,10.0,Calm,Calm,-,N/A,,Clear,0,2013-08-29 01:54:00
9:54 PM,75.0,69.1,82,29.98,10.0,Calm,Calm,-,N/A,,Clear,0,2013-08-29 02:54:00
10:54 PM,73.0,69.1,87,29.98,10.0,Calm,Calm,-,N/A,,Clear,0,2013-08-29 03:54:00
11:54 PM,73.0,68.0,84,29.98,10.0,Calm,Calm,-,N/A,,Clear,0,2013-08-29 04:54:00